Terminal Aerodrome Forecast
Issued by NWS Louisville, KY

Home | Current Version | Previous Version | Text Only | Print | Product List | Glossary On
Versions: 1 2 3 4 5 6 7 8 9 10 11 12 13 14 15 16 17 18
000
FTUS43 KLMK 162334
TAFLEX
TAF
KLEX 162334Z 1700/1724 34009KT P6SM SCT019 BKN025
      TEMPO 1703/1707 SCT025 BKN250
     FM170700 06006KT P6SM BKN025 PROB30 1715/1717 4SM -SHRA OVC015
     FM171700 11005KT 2SM SHRA OVC012
     FM172000 19005KT 2SM SHRA OVC006=

USA.gov is the U.S. government's official web portal to all federal, state and local government web resources and services.